createdAt,value
2018-09-22T00:00:59.818Z,3.30
2018-09-22T00:03:29.122Z,5.72
2018-09-22T00:05:59.685Z,6.25
2018-09-22T00:08:30.089Z,4.53
2018-09-22T00:11:00.491Z,6.10
2018-09-22T00:13:30.873Z,5.50
2018-09-22T00:16:00.985Z,3.67
2018-09-22T00:18:33.463Z,3.33
2018-09-22T00:21:03.727Z,5.80
2018-09-22T00:23:32.522Z,4.57
2018-09-22T00:26:04.191Z,6.70
2018-09-22T00:28:33.662Z,3.95
2018-09-22T00:31:03.996Z,7.70
2018-09-22T00:33:35.672Z,4.53
2018-09-22T00:36:04.526Z,10.18
2018-09-22T00:38:36.278Z,8.52
2018-09-22T00:41:06.483Z,6.70
2018-09-22T00:43:36.713Z,2.80
2018-09-22T00:46:07.372Z,6.32
2018-09-22T00:48:36.167Z,4.85
2018-09-22T00:51:06.395Z,5.60
2018-09-22T00:53:37.131Z,6.93
2018-09-22T00:56:07.618Z,3.12
2018-09-22T00:58:36.247Z,4.62
2018-09-22T01:01:07.089Z,4.55
2018-09-22T01:03:37.405Z,5.80
2018-09-22T01:06:06.221Z,6.22
2018-09-22T01:08:37.914Z,4.05
2018-09-22T01:11:10.142Z,3.97
2018-09-22T01:13:40.285Z,7.28
2018-09-22T01:16:12.220Z,13.43
2018-09-22T01:18:42.452Z,10.98
2018-09-22T01:21:12.875Z,9.98
2018-09-22T01:23:44.639Z,11.02
2018-09-22T01:26:14.902Z,12.05
2018-09-22T01:28:43.767Z,15.75
2018-09-22T01:31:15.563Z,7.43
2018-09-22T01:33:47.619Z,9.50
2018-09-22T01:36:16.598Z,8.55
2018-09-22T01:38:49.650Z,11.38
2018-09-22T01:41:20.165Z,13.60
2018-09-22T01:43:52.221Z,5.93
2018-09-22T01:46:21.012Z,7.12
2018-09-22T01:48:49.788Z,9.52
2018-09-22T01:51:21.808Z,5.93
2018-09-22T01:53:53.732Z,6.37
2018-09-22T01:56:25.556Z,4.53
2018-09-22T01:58:57.193Z,5.93
2018-09-22T02:01:28.743Z,4.95
2018-09-22T02:03:57.421Z,5.37
2018-09-22T02:06:27.631Z,7.32
2018-09-22T02:08:58.070Z,5.62
2018-09-22T02:11:27.582Z,8.73
2018-09-22T02:13:57.899Z,6.93
2018-09-22T02:16:28.799Z,5.82
2018-09-22T02:18:59.913Z,8.15
2018-09-22T02:21:30.384Z,6.30
2018-09-22T02:24:00.675Z,8.23
2018-09-22T02:26:32.457Z,10.45
2018-09-22T02:29:02.754Z,16.70
2018-09-22T02:31:35.038Z,8.18
2018-09-22T02:34:05.430Z,6.97
2018-09-22T02:36:35.749Z,9.00
2018-09-22T02:39:06.316Z,8.05
2018-09-22T02:41:37.525Z,4.22
2018-09-22T02:44:09.275Z,4.72
2018-09-22T02:46:40.021Z,13.40
2018-09-22T02:49:10.428Z,5.78
2018-09-22T02:51:40.711Z,7.00
2018-09-22T02:54:12.706Z,10.90
2018-09-22T02:56:44.585Z,4.10
2018-09-22T02:59:16.657Z,8.07
2018-09-22T03:01:47.116Z,5.90
2018-09-22T03:04:18.882Z,6.37
2018-09-22T03:06:49.207Z,7.35
2018-09-22T03:09:19.895Z,5.10
2018-09-22T03:11:51.106Z,5.37
2018-09-22T03:14:22.736Z,8.38
2018-09-22T03:16:53.564Z,10.15
2018-09-22T03:19:26.301Z,8.38
2018-09-22T03:21:56.971Z,7.65
2018-09-22T03:24:29.054Z,5.93
2018-09-22T03:26:59.622Z,5.70
2018-09-22T03:29:29.830Z,8.93
2018-09-22T03:32:01.034Z,6.32
2018-09-22T03:34:29.796Z,10.18
2018-09-22T03:36:59.930Z,6.65
2018-09-22T03:39:30.246Z,4.97
2018-09-22T03:42:01.934Z,9.35
2018-09-22T03:44:32.928Z,7.78
2018-09-22T03:47:04.721Z,6.97
2018-09-22T03:49:34.844Z,4.75
2018-09-22T03:52:03.808Z,5.62
2018-09-22T03:54:34.390Z,5.62
2018-09-22T03:57:05.444Z,6.72
2018-09-22T03:59:35.171Z,7.93
2018-09-22T04:02:05.646Z,7.47
2018-09-22T04:04:35.920Z,5.20
2018-09-22T04:07:08.681Z,4.03
2018-09-22T04:09:40.480Z,10.32
2018-09-22T04:12:12.436Z,5.18
2018-09-22T04:14:41.751Z,6.40
2018-09-22T04:17:13.496Z,3.95
2018-09-22T04:19:43.934Z,5.03
2018-09-22T04:22:14.095Z,13.57
2018-09-22T04:24:44.165Z,6.93
2018-09-22T04:27:14.348Z,11.50
2018-09-22T04:29:44.732Z,5.87
2018-09-22T04:32:14.838Z,10.52
2018-09-22T04:34:45.396Z,8.85
2018-09-22T04:37:15.934Z,10.70
2018-09-22T04:39:46.410Z,8.52
2018-09-22T04:42:17.247Z,11.90
2018-09-22T04:44:49.092Z,8.43
2018-09-22T04:47:19.655Z,7.30
2018-09-22T04:49:48.962Z,11.45
2018-09-22T04:52:20.910Z,8.23
2018-09-22T04:54:51.290Z,6.75
2018-09-22T04:57:23.244Z,8.35
2018-09-22T04:59:53.687Z,10.23
2018-09-22T05:02:23.869Z,8.88
2018-09-22T05:04:54.241Z,7.90
2018-09-22T05:07:26.255Z,7.30
2018-09-22T05:09:56.520Z,6.82
2018-09-22T05:12:26.887Z,10.07
2018-09-22T05:14:58.133Z,9.52
2018-09-22T05:17:28.577Z,11.15
2018-09-22T05:20:00.436Z,9.35
2018-09-22T05:22:32.580Z,9.82
2018-09-22T05:25:04.833Z,5.10
2018-09-22T05:27:36.000Z,10.65
2018-09-22T05:30:06.606Z,7.43
2018-09-22T05:32:36.877Z,7.15
2018-09-22T05:35:07.176Z,13.00
2018-09-22T05:37:39.164Z,8.13
2018-09-22T05:40:11.024Z,10.60
2018-09-22T05:42:39.963Z,7.07
2018-09-22T05:45:09.519Z,8.48
2018-09-22T05:47:39.903Z,13.73
2018-09-22T05:50:10.722Z,9.13
2018-09-22T05:52:39.550Z,9.52
2018-09-22T05:55:10.096Z,13.32
2018-09-22T05:57:40.313Z,13.80
2018-09-22T06:00:09.082Z,7.30
2018-09-22T06:02:38.604Z,8.57
2018-09-22T06:05:10.594Z,6.82
2018-09-22T06:07:39.530Z,14.43
2018-09-22T06:10:11.342Z,6.05
2018-09-22T06:12:40.199Z,12.60
2018-09-22T06:15:10.396Z,8.38
2018-09-22T06:17:40.035Z,10.50
2018-09-22T06:20:11.684Z,12.00
2018-09-22T06:22:40.483Z,10.25
2018-09-22T06:25:12.708Z,13.43
2018-09-22T06:27:42.912Z,8.23
2018-09-22T06:30:14.625Z,11.38
2018-09-22T06:32:46.374Z,7.50
2018-09-22T06:35:16.824Z,12.98
2018-09-22T06:37:48.794Z,8.85
2018-09-22T06:40:18.091Z,7.65
2018-09-22T06:42:49.892Z,9.57
2018-09-22T06:45:21.577Z,7.47
2018-09-22T06:47:52.080Z,11.07
2018-09-22T06:50:23.711Z,7.12
2018-09-22T06:52:55.415Z,10.10
2018-09-22T06:55:25.673Z,7.15
2018-09-22T06:57:57.476Z,8.10
2018-09-22T07:00:27.217Z,11.10
2018-09-22T07:02:59.205Z,11.95
2018-09-22T07:05:30.887Z,9.57
2018-09-22T07:07:59.722Z,8.70
2018-09-22T07:10:30.186Z,9.73
2018-09-22T07:12:59.614Z,12.52
2018-09-22T07:15:31.451Z,8.02
2018-09-22T07:18:02.054Z,7.47
2018-09-22T07:20:32.198Z,5.78
2018-09-22T07:23:20.446Z,10.35
2018-09-22T07:25:49.257Z,5.70
2018-09-22T07:28:20.972Z,11.88
2018-09-22T07:30:53.087Z,6.03
2018-09-22T07:33:23.526Z,8.95
2018-09-22T07:35:53.781Z,5.60
2018-09-22T07:38:25.219Z,9.50
2018-09-22T07:40:56.988Z,8.68
2018-09-22T07:43:27.634Z,8.38
2018-09-22T07:45:58.064Z,6.53
2018-09-22T07:48:26.836Z,8.80
2018-09-22T07:50:58.669Z,8.80
2018-09-22T07:53:28.779Z,10.75
2018-09-22T07:56:00.362Z,10.27
2018-09-22T07:58:31.600Z,9.75
2018-09-22T08:01:01.920Z,12.37
2018-09-22T08:03:31.139Z,9.38
2018-09-22T08:06:01.499Z,11.07
2018-09-22T08:08:33.375Z,10.98
2018-09-22T08:11:05.071Z,10.27
2018-09-22T08:13:36.856Z,10.15
2018-09-22T08:16:07.603Z,10.60
2018-09-22T08:18:37.982Z,7.60
2018-09-22T08:21:07.061Z,8.88
2018-09-22T08:23:37.660Z,10.18
2018-09-22T08:26:09.622Z,10.88
2018-09-22T08:28:39.952Z,11.60
2018-09-22T08:31:12.029Z,8.50
2018-09-22T08:33:43.707Z,6.55
2018-09-22T08:36:13.947Z,10.43
2018-09-22T08:38:45.610Z,7.40
2018-09-22T08:41:14.663Z,10.90
2018-09-22T08:43:46.430Z,8.27
2018-09-22T08:46:16.576Z,9.40
2018-09-22T08:48:48.064Z,8.18
2018-09-22T08:51:18.354Z,10.93
2018-09-22T08:53:50.839Z,7.20
2018-09-22T08:56:21.065Z,11.20
2018-09-22T08:58:50.448Z,6.93
2018-09-22T09:01:22.252Z,12.98
2018-09-22T09:03:51.054Z,13.27
2018-09-22T09:06:21.413Z,7.47
2018-09-22T09:08:51.575Z,8.10
2018-09-22T09:11:20.318Z,8.13
2018-09-22T09:13:50.467Z,9.90
2018-09-22T09:16:20.911Z,5.50
2018-09-22T09:18:52.652Z,8.32
2018-09-22T09:21:22.898Z,7.20
2018-09-22T09:23:53.129Z,12.50
2018-09-22T09:26:23.401Z,8.80
2018-09-22T09:28:53.533Z,10.85
2018-09-22T09:31:22.131Z,6.05
2018-09-22T09:33:52.480Z,10.85
2018-09-22T09:36:23.247Z,8.32
2018-09-22T09:38:55.593Z,14.40
2018-09-22T09:41:25.717Z,8.07
2018-09-22T09:43:57.409Z,7.40
2018-09-22T09:46:29.004Z,8.30
2018-09-22T09:49:00.889Z,8.32
2018-09-22T09:51:32.205Z,10.25
2018-09-22T09:54:03.971Z,11.18
2018-09-22T09:56:35.918Z,10.05
2018-09-22T09:59:06.058Z,11.52
2018-09-22T10:01:36.914Z,8.68
2018-09-22T10:04:07.237Z,6.70
2018-09-22T10:06:37.458Z,7.20
2018-09-22T10:09:11.121Z,8.27
2018-09-22T10:11:43.029Z,7.18
2018-09-22T10:14:13.754Z,8.13
2018-09-22T10:16:43.925Z,8.05
2018-09-22T10:19:14.074Z,10.75
2018-09-22T10:21:44.419Z,5.65
2018-09-22T10:24:16.068Z,7.37
2018-09-22T10:26:45.294Z,11.20
2018-09-22T10:29:13.989Z,10.55
2018-09-22T10:31:44.287Z,8.70
2018-09-22T10:34:15.391Z,8.23
2018-09-22T10:36:45.980Z,7.70
2018-09-22T10:39:16.203Z,8.55
2018-09-22T10:41:46.828Z,7.25
2018-09-22T10:44:17.021Z,6.05
2018-09-22T10:46:47.411Z,7.62
2018-09-22T10:49:17.674Z,8.70
2018-09-22T10:51:49.404Z,7.93
2018-09-22T10:54:20.940Z,6.43
2018-09-22T10:56:52.619Z,7.65
2018-09-22T10:59:22.732Z,7.75
2018-09-22T11:01:52.398Z,13.35
2018-09-22T11:04:22.442Z,7.20
2018-09-22T11:06:50.967Z,6.00
2018-09-22T11:09:22.573Z,8.48
2018-09-22T11:11:52.261Z,7.40
2018-09-22T11:14:21.858Z,5.00
2018-09-22T11:16:52.053Z,7.53
2018-09-22T11:19:21.599Z,6.10
2018-09-22T11:21:51.668Z,7.12
2018-09-22T11:24:22.417Z,7.20
2018-09-22T11:26:51.064Z,6.97
2018-09-22T11:29:21.641Z,8.40
2018-09-22T11:31:50.450Z,7.70
2018-09-22T11:34:22.112Z,13.68
2018-09-22T11:36:52.613Z,7.50
2018-09-22T11:39:25.071Z,7.85
2018-09-22T11:41:55.130Z,7.85
2018-09-22T11:44:25.313Z,8.52
2018-09-22T11:46:57.191Z,8.20
2018-09-22T11:49:25.847Z,7.68
2018-09-22T11:51:57.314Z,9.52
2018-09-22T11:54:27.721Z,11.10
2018-09-22T11:56:58.090Z,8.80
2018-09-22T11:59:29.987Z,7.40
2018-09-22T12:01:58.717Z,5.53
2018-09-22T12:04:28.783Z,3.55
2018-09-22T12:06:57.516Z,8.10
2018-09-22T12:09:27.726Z,5.78
2018-09-22T12:11:58.168Z,3.92
2018-09-22T12:14:29.930Z,5.18
2018-09-22T12:17:00.098Z,4.30
2018-09-22T12:19:30.491Z,6.90
2018-09-22T12:22:02.141Z,11.43
2018-09-22T12:24:30.021Z,6.80
2018-09-22T12:27:01.644Z,3.72
2018-09-22T12:29:31.801Z,1.17
2018-09-22T12:32:02.154Z,3.08
2018-09-22T12:34:30.246Z,1.75
2018-09-22T12:37:00.436Z,5.40
2018-09-22T12:39:32.227Z,4.95
2018-09-22T12:42:02.824Z,2.58
2018-09-22T12:44:32.600Z,1.23
2018-09-22T12:47:02.782Z,1.52
2018-09-22T12:49:32.853Z,2.78
2018-09-22T12:52:01.495Z,3.75
2018-09-22T12:54:30.322Z,2.92
2018-09-22T12:57:02.228Z,1.52
2018-09-22T12:59:33.947Z,1.65
2018-09-22T13:02:05.876Z,2.45
2018-09-22T13:04:34.473Z,2.25
2018-09-22T13:07:04.667Z,1.87
2018-09-22T13:09:34.911Z,2.65
2018-09-22T13:12:06.779Z,2.35
2018-09-22T13:14:36.943Z,4.50
2018-09-22T13:17:07.247Z,2.25
2018-09-22T13:19:39.123Z,5.05
2018-09-22T13:22:11.005Z,2.55
2018-09-22T13:24:42.656Z,2.90
2018-09-22T13:27:12.065Z,3.40
2018-09-22T13:29:43.961Z,2.72
2018-09-22T13:32:12.744Z,2.33
2018-09-22T13:34:43.615Z,2.83
2018-09-22T13:37:12.346Z,1.67
2018-09-22T13:39:41.039Z,2.30
2018-09-22T13:42:11.120Z,1.77
2018-09-22T13:44:42.929Z,2.35
2018-09-22T13:47:13.006Z,2.20
2018-09-22T13:49:43.500Z,3.42
2018-09-22T13:52:15.187Z,1.75
2018-09-22T13:54:45.415Z,2.70
2018-09-22T13:57:17.174Z,2.47
2018-09-22T13:59:45.899Z,2.53
2018-09-22T14:02:16.058Z,3.40
2018-09-22T14:04:45.457Z,2.90
2018-09-22T14:07:17.076Z,2.92
2018-09-22T14:09:46.326Z,6.37
2018-09-22T14:12:16.573Z,3.70
2018-09-22T14:14:45.240Z,3.75
2018-09-22T14:17:17.104Z,2.55
2018-09-22T14:19:48.861Z,3.87
2018-09-22T14:22:20.659Z,3.72
2018-09-22T14:24:52.613Z,5.97
2018-09-22T14:27:22.862Z,4.47
2018-09-22T14:29:53.089Z,6.87
2018-09-22T14:32:24.646Z,4.90
2018-09-22T14:34:54.750Z,2.62
2018-09-22T14:37:23.340Z,3.05
2018-09-22T14:39:53.525Z,3.08
2018-09-22T14:42:22.234Z,2.12
2018-09-22T14:44:54.157Z,3.97
2018-09-22T14:47:22.864Z,4.30
2018-09-22T14:49:53.237Z,2.47
2018-09-22T14:52:24.378Z,3.53
2018-09-22T14:54:54.627Z,3.28
2018-09-22T14:57:23.296Z,4.95
2018-09-22T14:59:55.251Z,2.87
2018-09-22T15:02:25.976Z,2.60
2018-09-22T15:04:56.287Z,2.75
2018-09-22T15:07:28.199Z,1.42
2018-09-22T15:09:58.672Z,5.28
2018-09-22T15:12:28.871Z,5.85
2018-09-22T15:14:59.333Z,1.65
2018-09-22T15:17:31.154Z,3.47
2018-09-22T15:19:59.774Z,2.40
2018-09-22T15:22:31.767Z,3.50
2018-09-22T15:25:02.471Z,3.05
2018-09-22T15:27:32.806Z,2.78
2018-09-22T15:30:04.682Z,1.83
2018-09-22T15:32:36.499Z,3.03
2018-09-22T15:35:06.971Z,2.72
2018-09-22T15:37:37.667Z,6.18
2018-09-22T15:40:05.897Z,3.67
2018-09-22T15:42:36.161Z,2.92
2018-09-22T15:45:06.442Z,3.25
2018-09-22T15:47:36.607Z,5.60
2018-09-22T15:50:06.957Z,2.87
2018-09-22T15:52:38.529Z,5.75
2018-09-22T15:55:07.774Z,6.90
2018-09-22T15:57:39.660Z,3.12
2018-09-22T16:00:10.286Z,5.37
2018-09-22T16:02:38.223Z,6.55
2018-09-22T16:05:10.068Z,4.72
2018-09-22T16:07:40.682Z,4.45
2018-09-22T16:10:09.740Z,7.65
2018-09-22T16:12:39.963Z,6.97
2018-09-22T16:15:11.758Z,6.70
2018-09-22T16:17:43.636Z,4.60
2018-09-22T16:20:13.831Z,4.53
2018-09-22T16:22:45.670Z,3.92
2018-09-22T16:25:15.827Z,5.87
2018-09-22T16:27:46.083Z,3.90
2018-09-22T16:30:18.371Z,6.45
2018-09-22T16:32:48.580Z,3.40
2018-09-22T16:35:19.474Z,4.28
2018-09-22T16:37:49.726Z,7.78
2018-09-22T16:40:20.512Z,5.57
2018-09-22T16:42:52.453Z,6.87
2018-09-22T16:45:23.425Z,6.68
2018-09-22T16:47:53.513Z,6.07
2018-09-22T16:50:23.730Z,3.37
2018-09-22T16:52:55.515Z,4.25
2018-09-22T16:55:27.047Z,3.50
2018-09-22T16:57:57.161Z,3.37
2018-09-22T17:00:29.180Z,4.78
2018-09-22T17:02:57.943Z,3.87
2018-09-22T17:05:29.834Z,3.80
2018-09-22T17:08:01.460Z,3.05
2018-09-22T17:10:33.273Z,6.35
2018-09-22T17:13:05.067Z,3.47
2018-09-22T17:15:35.770Z,4.15
2018-09-22T17:18:05.914Z,8.82
2018-09-22T17:20:37.961Z,5.55
2018-09-22T17:23:09.839Z,5.90
2018-09-22T17:25:40.159Z,5.35
2018-09-22T17:28:11.966Z,5.37
2018-09-22T17:30:42.190Z,5.15
2018-09-22T17:33:10.804Z,4.12
2018-09-22T17:35:42.562Z,5.85
2018-09-22T17:38:15.150Z,4.80
2018-09-22T17:40:46.899Z,6.90
2018-09-22T17:43:17.304Z,8.95
2018-09-22T17:45:47.346Z,9.32
2018-09-22T17:48:16.136Z,5.47
2018-09-22T17:50:47.674Z,5.35
2018-09-22T17:53:19.674Z,7.75
2018-09-22T17:55:49.819Z,5.15
2018-09-22T17:58:20.107Z,5.03
2018-09-22T18:00:50.483Z,5.32
2018-09-22T18:03:21.990Z,8.00
2018-09-22T18:05:52.479Z,6.57
2018-09-22T18:08:24.125Z,6.72
2018-09-22T18:10:54.412Z,7.07
2018-09-22T18:13:24.660Z,4.60
2018-09-22T18:15:55.606Z,6.65
2018-09-22T18:18:25.681Z,8.52
2018-09-22T18:20:55.955Z,7.30
2018-09-22T18:23:26.047Z,8.15
2018-09-22T18:25:56.282Z,9.77
2018-09-22T18:28:26.386Z,9.95
2018-09-22T18:30:55.010Z,9.95
2018-09-22T18:33:23.609Z,9.52
2018-09-22T18:35:54.763Z,7.10
2018-09-22T18:38:24.926Z,10.77
2018-09-22T18:40:56.554Z,9.75
2018-09-22T18:43:28.221Z,9.38
2018-09-22T18:45:56.956Z,9.77
2018-09-22T18:48:25.595Z,7.53
2018-09-22T18:50:55.873Z,7.68
2018-09-22T18:53:26.580Z,9.30
2018-09-22T18:55:56.862Z,8.52
2018-09-22T18:58:27.414Z,11.57
2018-09-22T19:00:57.507Z,6.78
2018-09-22T19:03:26.200Z,9.52
2018-09-22T19:05:56.486Z,8.90
2018-09-22T19:08:28.295Z,9.07
2018-09-22T19:10:57.034Z,10.32
2018-09-22T19:13:34.325Z,9.27
2018-09-22T19:16:12.233Z,8.65
2018-09-22T19:19:05.698Z,9.98
2018-09-22T19:21:53.144Z,11.18
2018-09-22T19:24:27.369Z,10.40
2018-09-22T19:27:11.183Z,8.13
2018-09-22T19:30:00.665Z,10.35
2018-09-22T19:32:40.404Z,9.02
2018-09-22T19:35:17.198Z,10.55
2018-09-22T19:38:12.475Z,8.35
2018-09-22T19:40:49.778Z,8.90
2018-09-22T19:43:36.354Z,9.15
2018-09-22T19:46:20.230Z,8.40
2018-09-22T19:49:12.219Z,10.20
2018-09-22T19:51:46.140Z,10.23
2018-09-22T19:54:17.808Z,10.00
2018-09-22T19:56:47.960Z,8.20
2018-09-22T19:59:18.106Z,10.43
2018-09-22T20:01:47.982Z,10.95
2018-09-22T20:04:19.863Z,8.20
2018-09-22T20:06:50.921Z,8.90
2018-09-22T20:09:22.541Z,9.52
2018-09-22T20:11:52.708Z,7.30
2018-09-22T20:14:22.811Z,11.52
2018-09-22T20:16:53.114Z,10.50
2018-09-22T20:19:23.339Z,9.45
2018-09-22T20:21:54.076Z,12.05
2018-09-22T20:24:24.265Z,6.62
2018-09-22T20:26:54.535Z,7.55
2018-09-22T20:29:24.878Z,15.40
2018-09-22T20:31:56.598Z,8.57
2018-09-22T20:34:28.574Z,9.95
2018-09-22T20:36:59.104Z,7.70
2018-09-22T20:39:28.401Z,8.82
2018-09-22T20:41:59.208Z,8.20
2018-09-22T20:44:29.315Z,8.18
2018-09-22T20:47:00.548Z,14.27
2018-09-22T20:49:32.251Z,13.07
2018-09-22T20:52:04.633Z,11.10
2018-09-22T20:54:36.531Z,12.65
2018-09-22T20:57:08.171Z,13.65
2018-09-22T20:59:38.301Z,13.88
2018-09-22T21:02:10.245Z,16.40
2018-09-22T21:04:39.052Z,13.75
2018-09-22T21:07:07.661Z,14.55
2018-09-22T21:09:36.234Z,22.80
2018-09-22T21:12:08.091Z,17.75
2018-09-22T21:14:39.877Z,19.00
2018-09-22T21:17:11.612Z,19.15
2018-09-22T21:19:43.445Z,14.60
2018-09-22T21:22:15.116Z,16.35
2018-09-22T21:24:47.093Z,15.70
2018-09-22T21:27:18.902Z,15.15
2018-09-22T21:29:48.550Z,16.92
2018-09-22T21:32:17.369Z,18.50
2018-09-22T21:34:49.282Z,14.60
2018-09-22T21:37:17.894Z,16.87
2018-09-22T21:39:48.219Z,17.48
2018-09-22T21:42:20.118Z,13.62
2018-09-22T21:44:50.522Z,15.63
2018-09-22T21:47:20.687Z,16.62
2018-09-22T21:49:52.389Z,16.80
2018-09-22T21:52:22.836Z,12.27
2018-09-22T21:54:53.355Z,16.95
2018-09-22T21:57:23.897Z,18.17
2018-09-22T21:59:54.070Z,13.32
2018-09-22T22:02:25.611Z,14.43
2018-09-22T22:04:55.991Z,13.20
2018-09-22T22:07:26.399Z,11.45
2018-09-22T22:09:57.976Z,11.35
2018-09-22T22:12:30.098Z,9.90
2018-09-22T22:15:01.929Z,11.63
2018-09-22T22:17:32.196Z,11.20
2018-09-22T22:20:02.660Z,9.82
2018-09-22T22:22:32.823Z,9.93
2018-09-22T22:25:03.088Z,10.32
2018-09-22T22:27:33.503Z,13.45
2018-09-22T22:30:03.867Z,9.30
2018-09-22T22:32:34.357Z,10.75
2018-09-22T22:35:06.644Z,10.45
2018-09-22T22:37:35.801Z,10.00
2018-09-22T22:40:04.424Z,10.90
2018-09-22T22:42:34.629Z,9.45
2018-09-22T22:45:04.357Z,12.43
2018-09-22T22:47:34.502Z,12.70
2018-09-22T22:50:04.811Z,10.27
2018-09-22T22:52:35.391Z,11.38
2018-09-22T22:55:05.766Z,10.70
2018-09-22T22:57:36.468Z,11.65
2018-09-22T23:00:06.923Z,9.73
2018-09-22T23:02:37.079Z,9.07
2018-09-22T23:05:07.471Z,8.98
2018-09-22T23:07:39.137Z,10.05
2018-09-22T23:10:07.781Z,10.05
2018-09-22T23:12:37.947Z,11.05
2018-09-22T23:15:09.859Z,13.07
2018-09-22T23:17:38.455Z,9.93
2018-09-22T23:20:08.982Z,12.13
2018-09-22T23:22:39.091Z,8.68
2018-09-22T23:25:09.267Z,11.40
2018-09-22T23:27:39.964Z,11.52
2018-09-22T23:30:11.860Z,9.77
2018-09-22T23:32:43.444Z,10.15
2018-09-22T23:35:13.975Z,10.68
2018-09-22T23:37:44.334Z,11.93
2018-09-22T23:40:14.649Z,8.30
2018-09-22T23:42:44.800Z,9.82
2018-09-22T23:45:16.755Z,8.75
2018-09-22T23:47:48.531Z,10.10
2018-09-22T23:50:20.316Z,10.13
2018-09-22T23:52:52.316Z,9.43
2018-09-22T23:55:24.117Z,7.75
2018-09-22T23:57:54.379Z,8.98
